Terminal Aerodrome Forecast
Issued by NWS

Home | Current Version | Previous Version | Text Only | Print | Product List | Glossary On
Versions: 1 2 3 4 5 6 7 8 9 10 11 12
660
FTUS45 KREV 040520
TAFMMH
TAF
KMMH 040520Z 0406/0506 28006KT P6SM OVC150
     FM041600 12006KT P6SM OVC150
     FM042300 21012G18KT P6SM VCSH OVC070=

USA.gov is the U.S. government's official web portal to all federal, state and local government web resources and services.